createdAt,value
2019-02-05T00:01:11.346Z,1.44
2019-02-05T00:06:30.230Z,1.35
2019-02-05T00:11:48.846Z,1.29
2019-02-05T00:17:07.476Z,1.21
2019-02-05T00:22:26.273Z,1.14
2019-02-05T00:27:44.877Z,1.08
2019-02-05T00:33:03.498Z,1.01
2019-02-05T00:38:22.032Z,1.04
2019-02-05T00:43:40.574Z,1.09
2019-02-05T00:48:59.416Z,1.05
2019-02-05T00:54:17.980Z,1.04
2019-02-05T00:59:38.910Z,1.03
2019-02-05T01:04:57.533Z,1.05
2019-02-05T01:10:16.539Z,0.99
2019-02-05T01:15:35.175Z,0.95
2019-02-05T01:20:53.875Z,0.93
2019-02-05T01:26:12.502Z,0.86
2019-02-05T01:31:31.049Z,0.91
2019-02-05T01:36:49.607Z,0.95
2019-02-05T01:42:08.518Z,0.91
2019-02-05T01:47:28.569Z,0.95
2019-02-05T01:52:47.188Z,0.95
2019-02-05T01:58:05.733Z,0.95
2019-02-05T02:03:24.299Z,0.93
2019-02-05T02:08:43.201Z,0.94
2019-02-05T02:14:02.387Z,0.95
2019-02-05T02:19:21.009Z,0.92
2019-02-05T02:24:39.799Z,0.94
2019-02-05T02:29:58.820Z,0.88
2019-02-05T02:35:17.449Z,0.91
2019-02-05T02:40:36.066Z,0.89
2019-02-05T02:45:54.620Z,0.93
2019-02-05T02:51:13.237Z,0.94
2019-02-05T02:56:32.261Z,0.90
2019-02-05T03:01:50.830Z,0.96
2019-02-05T03:07:09.841Z,0.93
2019-02-05T03:12:30.780Z,0.95
2019-02-05T03:17:49.500Z,0.98
2019-02-05T03:23:08.117Z,0.99
2019-02-05T03:28:26.676Z,1.05
2019-02-05T03:33:45.567Z,1.04
2019-02-05T03:39:06.181Z,1.02
2019-02-05T03:44:24.732Z,1.02
2019-02-05T03:49:43.520Z,1.06
2019-02-05T03:55:14.017Z,1.07
2019-02-05T04:00:38.416Z,1.07
2019-02-05T04:06:02.911Z,1.01
2019-02-05T04:11:39.437Z,1.05
2019-02-05T04:17:25.277Z,1.03
2019-02-05T04:22:52.574Z,1.06
2019-02-05T04:28:17.031Z,1.12
2019-02-05T04:34:00.407Z,1.10
2019-02-05T04:39:49.031Z,1.12
2019-02-05T04:45:10.561Z,1.09
2019-02-05T04:50:51.007Z,1.11
2019-02-05T04:56:18.480Z,1.08
2019-02-05T05:01:51.865Z,1.10
2019-02-05T05:07:28.729Z,1.15
2019-02-05T05:12:47.440Z,1.18
2019-02-05T05:18:06.079Z,1.19
2019-02-05T05:23:24.918Z,1.16
2019-02-05T05:28:44.150Z,1.19
2019-02-05T05:34:03.015Z,1.18
2019-02-05T05:39:21.627Z,1.20
2019-02-05T05:44:40.243Z,1.22
2019-02-05T05:49:59.676Z,1.20
2019-02-05T05:55:18.304Z,1.25
2019-02-05T06:00:36.952Z,1.30
2019-02-05T06:05:57.209Z,1.28
2019-02-05T06:11:24.551Z,1.25
2019-02-05T06:16:43.253Z,1.29
2019-02-05T06:22:01.817Z,1.30
2019-02-05T06:27:20.449Z,1.33
2019-02-05T06:32:39.428Z,1.36
2019-02-05T06:37:58.259Z,1.37
2019-02-05T06:43:16.813Z,1.37
2019-02-05T06:48:35.353Z,1.38
2019-02-05T06:53:53.822Z,1.42
2019-02-05T06:59:12.628Z,1.42
2019-02-05T07:04:31.313Z,1.43
2019-02-05T07:09:49.930Z,1.44
2019-02-05T07:15:09.961Z,1.44
2019-02-05T07:20:28.657Z,1.45
2019-02-05T07:25:47.206Z,1.45
2019-02-05T07:31:05.815Z,1.47
2019-02-05T07:36:24.461Z,1.47
2019-02-05T07:41:43.018Z,1.49
2019-02-05T07:47:01.631Z,1.49
2019-02-05T07:52:20.269Z,1.51
2019-02-05T07:57:38.888Z,1.50
2019-02-05T08:02:57.685Z,1.50
2019-02-05T08:08:16.307Z,1.53
2019-02-05T08:13:34.926Z,1.60
2019-02-05T08:18:53.392Z,1.60
2019-02-05T08:24:12.012Z,1.68
2019-02-05T08:29:30.904Z,1.72
2019-02-05T08:34:49.558Z,1.75
2019-02-05T08:40:14.175Z,1.78
2019-02-05T08:45:34.873Z,1.86
2019-02-05T08:50:53.510Z,1.89
2019-02-05T08:56:12.142Z,1.93
2019-02-05T09:01:30.759Z,1.99
2019-02-05T09:06:49.320Z,2.21
2019-02-05T09:12:07.945Z,2.13
2019-02-05T09:17:26.989Z,2.20
2019-02-05T09:22:45.632Z,2.36
2019-02-05T09:28:04.561Z,2.38
2019-02-05T09:33:24.153Z,2.43
2019-02-05T09:38:42.778Z,2.53
2019-02-05T09:44:01.415Z,2.64
2019-02-05T09:49:19.972Z,2.73
2019-02-05T09:54:38.601Z,2.71
2019-02-05T09:59:57.535Z,2.79
2019-02-05T10:05:19.171Z,2.96
2019-02-05T10:10:37.756Z,2.94
2019-02-05T10:15:56.381Z,2.97
2019-02-05T10:21:14.985Z,2.87
2019-02-05T10:26:33.535Z,2.94
2019-02-05T10:31:52.087Z,3.04
2019-02-05T10:37:10.780Z,3.08
2019-02-05T10:42:29.694Z,3.09
2019-02-05T10:47:48.346Z,3.12
2019-02-05T10:53:06.988Z,3.13
2019-02-05T10:58:25.556Z,3.20
2019-02-05T11:03:51.087Z,3.36
2019-02-05T11:09:10.015Z,3.46
2019-02-05T11:14:28.624Z,3.25
2019-02-05T11:19:47.531Z,3.41
2019-02-05T11:25:08.063Z,3.80
2019-02-05T11:30:38.495Z,3.91
2019-02-05T11:35:57.131Z,3.70
2019-02-05T11:41:15.887Z,3.79
2019-02-05T11:46:34.513Z,4.00
2019-02-05T11:51:53.151Z,4.00
2019-02-05T11:57:11.699Z,3.73
2019-02-05T12:02:30.373Z,3.64
2019-02-05T12:07:48.921Z,3.58
2019-02-05T12:13:07.853Z,3.48
2019-02-05T12:18:26.469Z,3.61
2019-02-05T12:23:45.121Z,3.65
2019-02-05T12:29:03.716Z,3.84
2019-02-05T12:34:22.488Z,3.84
2019-02-05T12:39:41.144Z,3.90
2019-02-05T12:44:59.790Z,3.96
2019-02-05T12:50:20.707Z,3.83
2019-02-05T12:55:39.327Z,3.70
2019-02-05T13:00:59.564Z,3.69
2019-02-05T13:06:25.259Z,3.64
2019-02-05T13:11:44.131Z,3.54
2019-02-05T13:17:02.663Z,3.60
2019-02-05T13:22:21.507Z,3.68
2019-02-05T13:27:40.041Z,3.74
2019-02-05T13:32:58.796Z,3.65
2019-02-05T13:38:17.428Z,3.64
2019-02-05T13:43:36.133Z,3.60
2019-02-05T13:48:54.701Z,3.61
2019-02-05T13:54:13.347Z,3.68
2019-02-05T13:59:34.245Z,3.62
2019-02-05T14:04:52.906Z,3.57
2019-02-05T14:10:17.860Z,3.73
2019-02-05T14:15:38.798Z,3.82
2019-02-05T14:20:57.697Z,3.81
2019-02-05T14:26:17.088Z,3.96
2019-02-05T14:31:35.718Z,3.95
2019-02-05T14:36:55.321Z,3.93
2019-02-05T14:42:13.877Z,3.96
2019-02-05T14:47:32.429Z,4.05
2019-02-05T14:53:01.126Z,4.05
2019-02-05T14:58:19.779Z,3.99
2019-02-05T15:03:38.327Z,4.16
2019-02-05T15:08:56.893Z,4.14
2019-02-05T15:14:15.589Z,4.13
2019-02-05T15:19:34.490Z,4.20
2019-02-05T15:24:52.973Z,4.15
2019-02-05T15:30:17.390Z,4.13
2019-02-05T15:35:36.589Z,4.07
2019-02-05T15:40:57.019Z,4.02
2019-02-05T15:46:15.648Z,4.09
2019-02-05T15:51:34.332Z,3.97
2019-02-05T15:56:52.890Z,4.04
2019-02-05T16:02:11.625Z,3.94
2019-02-05T16:07:30.267Z,3.94
2019-02-05T16:12:48.819Z,3.89
2019-02-05T16:18:08.125Z,3.76
2019-02-05T16:23:26.704Z,3.67
2019-02-05T16:28:45.267Z,3.56
2019-02-05T16:34:03.831Z,3.47
2019-02-05T16:39:22.483Z,3.38
2019-02-05T16:44:41.286Z,3.34
2019-02-05T16:50:00.655Z,3.33
2019-02-05T16:55:20.953Z,3.29
2019-02-05T17:00:49.596Z,3.24
2019-02-05T17:06:07.818Z,3.19
2019-02-05T17:11:26.553Z,3.11
2019-02-05T17:16:45.311Z,3.05
2019-02-05T17:22:04.039Z,3.00
2019-02-05T17:27:22.610Z,2.91
2019-02-05T17:32:41.232Z,2.92
2019-02-05T17:37:59.985Z,2.88
2019-02-05T17:43:18.562Z,2.78
2019-02-05T17:48:37.285Z,2.81
2019-02-05T17:53:55.909Z,2.66
2019-02-05T17:59:15.211Z,2.57
2019-02-05T18:04:33.796Z,2.50
2019-02-05T18:09:52.348Z,2.50
2019-02-05T18:15:16.826Z,2.36
2019-02-05T18:20:35.446Z,2.50
2019-02-05T18:25:54.024Z,2.36
2019-02-05T18:31:35.438Z,2.20
2019-02-05T18:36:54.059Z,2.16
2019-02-05T18:42:12.628Z,2.00
2019-02-05T18:47:31.491Z,1.99
2019-02-05T18:52:50.047Z,1.85
2019-02-05T18:58:10.457Z,1.58
2019-02-05T19:03:29.455Z,1.47
2019-02-05T19:08:48.084Z,1.56
2019-02-05T19:14:06.769Z,1.49
2019-02-05T19:19:25.406Z,1.62
2019-02-05T19:24:45.582Z,1.50
2019-02-05T19:30:10.131Z,1.70
2019-02-05T19:35:28.674Z,1.67
2019-02-05T19:40:57.076Z,1.59
2019-02-05T19:46:25.644Z,1.53
2019-02-05T19:51:44.348Z,1.54
2019-02-05T19:57:03.171Z,1.38
2019-02-05T20:02:21.798Z,1.12
2019-02-05T20:07:40.348Z,1.15
2019-02-05T20:12:59.155Z,1.03
2019-02-05T20:18:20.545Z,0.97
2019-02-05T20:23:39.177Z,1.03
2019-02-05T20:28:57.793Z,0.88
2019-02-05T20:34:21.913Z,0.94
2019-02-05T20:39:54.679Z,0.84
2019-02-05T20:50:30.956Z,0.71
2019-02-05T20:56:00.090Z,0.71
2019-02-05T21:01:18.761Z,0.31
2019-02-05T21:06:38.907Z,0.20
2019-02-05T21:11:59.218Z,0.69
2019-02-05T21:17:25.765Z,0.44
2019-02-05T21:22:44.410Z,0.14
2019-02-05T21:28:03.045Z,0.30
2019-02-05T21:33:23.166Z,0.36
2019-02-05T21:38:41.780Z,0.23
2019-02-05T21:44:00.288Z,-0.03
2019-02-05T21:49:18.905Z,0.31
2019-02-05T21:54:38.604Z,0.31
2019-02-05T21:59:57.534Z,0.33
2019-02-05T22:05:16.679Z,-0.04
2019-02-05T22:10:35.387Z,-0.20
2019-02-05T22:15:54.011Z,-0.01
2019-02-05T22:21:13.655Z,0.41
2019-02-05T22:26:32.697Z,0.35
2019-02-05T22:31:51.617Z,0.79
2019-02-05T22:37:10.512Z,0.87
2019-02-05T22:42:30.066Z,0.82
2019-02-05T22:47:49.205Z,0.54
2019-02-05T22:53:10.007Z,0.29
2019-02-05T22:58:28.631Z,-0.08
2019-02-05T23:03:50.416Z,-0.19
2019-02-05T23:09:17.960Z,0.02
2019-02-05T23:14:36.586Z,0.04
2019-02-05T23:19:55.391Z,-0.06
2019-02-05T23:25:14.009Z,0.16
2019-02-05T23:30:32.636Z,0.56
2019-02-05T23:35:52.071Z,0.79
2019-02-05T23:41:10.691Z,0.94
2019-02-05T23:46:29.255Z,1.05
2019-02-05T23:51:47.884Z,1.25
2019-02-05T23:57:06.594Z,1.37
